Eastsound, WA

10:29 AM PST on December 10, 2016 (GMT -0800)
Orcas Island | | Change Station

Elev 30 ft 48.71 °N, 122.91 °W | Updated 14 minutes ago

Light Rain
Light Rain
39 °F
Feels Like 35 °F
N
6
Wind Variable Wind from South

Today
High -- | Low -- °F
--% Chance of Precip.
Yesterday
High -- | Low -- °F
Precip. -- in
Pressure 29.82 in
Visibility 3.0 miles
Clouds Few 900 ft
Scattered Clouds 2400 ft
Mostly Cloudy 3300 ft
Windchill 35 °F
Dew Point 37 °F
Humidity 93%
Rainfall 0.03 in
Snow Depth Not available.
7:53 AM 4:15 PM
Waxing Gibbous, 85% visible
METAR KORS 101815Z AUTO 17005KT 3SM -RA FEW009 SCT024 BKN033 04/03 A2982 RMK AO2
Pressure 29.82 in
Visibility 3.0 miles
Clouds Few 900 ft
Scattered Clouds 2400 ft
Mostly Cloudy 3300 ft
Windchill 35 °F
Dew Point 37 °F
Humidity 93%
Rainfall 0.03 in
Snow Depth Not available.
7:53 AM 4:15 PM
Waxing Gibbous, 85% visible
METAR KORS 101815Z AUTO 17005KT 3SM -RA FEW009 SCT024 BKN033 04/03 A2982 RMK AO2

10-Day Weather Forecast

Almanac

Astronomy

Dec. 10, 2016 Rise Set
Actual Time
Civil Twilight
Nautical Twilight
Astronomical Twilight
Moon
Length of Visible Light
Length of Day
Tomorrow will be .
, % of the Moon is Illuminated

Today's Extremes

State Highs State Lows

Community

WunderPhotos

Upload Photos

1,956,617 photos uploaded!

WunderBlog® & News

Nearby

Air Quality

  Air Quality AQ Index Pollutant
Not available.

Snow Depth

Station Depth Elevation

Earthquake Activity

City Distance Mag. Time & Date
Minimum magnitude displayed is 2.5.

Coastal Water Temperatures

Place Temperature

Stations

Nearby Weather Stations

Station Location Temp. Windchill Dew Point Humidity Wind Precip. Elev Updated Type
                   

Watches & Warnings

There are currently no watches in effect.